Time;durP1;ratioP1;P1;durP2;ratioP2;P2;SDS_P1;SDS_P2;PMS_P1;PMS_P2;Temp;Humidity;BMP_temperature;BMP_pressure;BME280_temperature;BME280_humidity;BME280_pressure;Samples;Min_cycle;Max_cycle;Signal;HPM_P1;HPM_P2
2023/03/10 00:02:08;;;;;;;13.00;11.10;;;4.20;86.10;;;6.98;60.03;99170.19;5113750;28;20694;-53
2023/03/10 00:04:35;;;;;;;11.53;10.30;;;4.30;86.10;;;7.00;60.76;99166.38;5114242;28;20217;-54
2023/03/10 00:07:02;;;;;;;13.03;10.57;;;4.30;86.90;;;7.01;60.32;99164.59;5115080;28;20669;-53
2023/03/10 00:09:29;;;;;;;13.73;11.10;;;4.30;86.10;;;6.99;60.70;99163.97;5113614;28;20644;-56
2023/03/10 00:11:56;;;;;;;12.97;11.27;;;4.30;85.90;;;6.99;60.82;99153.53;5114745;28;20200;-61
2023/03/10 00:14:24;;;;;;;13.27;10.77;;;4.30;86.10;;;6.98;60.35;99151.88;5114087;28;20216;-56
2023/03/10 00:16:51;;;;;;;13.47;10.83;;;4.30;86.00;;;6.97;60.83;99145.03;5125779;28;20199;-54
2023/03/10 00:19:18;;;;;;;12.47;9.97;;;4.30;85.80;;;6.95;60.73;99144.41;5134649;27;20196;-56
2023/03/10 00:21:45;;;;;;;13.83;10.87;;;4.30;86.00;;;6.94;60.10;99140.97;5134626;27;20525;-54
2023/03/10 00:24:12;;;;;;;13.73;11.10;;;4.20;86.60;;;6.90;60.09;99141.56;5134594;27;20783;-54
2023/03/10 00:26:39;;;;;;;13.57;10.63;;;4.30;86.00;;;6.84;60.59;99122.22;5134737;28;20187;-53
2023/03/10 00:29:06;;;;;;;13.20;10.03;;;4.20;85.80;;;6.83;60.75;99118.00;5134598;27;20726;-53
2023/03/10 00:31:34;;;;;;;12.33;10.00;;;4.20;85.90;;;6.85;60.50;99121.22;5134328;27;20203;-53
2023/03/10 00:34:01;;;;;;;12.63;10.40;;;4.20;86.20;;;6.86;61.12;99111.56;5134385;27;20261;-55
2023/03/10 00:36:30;;;;;;;13.13;10.77;;;4.20;86.40;;;6.90;60.70;99107.56;5134850;27;20506;-55
2023/03/10 00:39:03;;;;;;;12.83;10.53;;;4.20;86.40;;;6.92;61.04;99105.59;5134719;27;20244;-53
2023/03/10 00:41:35;;;;;;;11.60;9.70;;;4.20;86.40;;;6.91;60.88;99098.75;5134633;27;20298;-53
2023/03/10 00:44:02;;;;;;;11.67;10.40;;;4.20;86.40;;;6.91;60.61;99090.91;5134143;27;20627;-54
2023/03/10 00:46:32;;;;;;;13.03;10.80;;;4.20;86.20;;;6.90;61.18;99078.81;5125461;27;20214;-57
2023/03/10 00:49:00;;;;;;;12.07;10.27;;;4.20;86.10;;;6.90;61.33;99076.19;5115620;28;20194;-53
2023/03/10 00:51:28;;;;;;;13.40;10.60;;;4.20;86.40;;;6.92;61.25;99074.22;5118153;27;20241;-54
2023/03/10 00:53:54;;;;;;;12.43;9.83;;;4.20;86.40;;;6.91;60.49;99067.34;5117595;28;20547;-52
2023/03/10 00:56:24;;;;;;;11.50;9.57;;;4.20;86.10;;;6.92;60.54;99058.53;5117440;27;20217;-56
2023/03/10 00:58:53;;;;;;;12.30;10.20;;;4.20;86.10;;;6.86;60.39;99044.41;5117844;28;20193;-53
2023/03/10 01:01:23;;;;;;;13.03;10.23;;;4.20;86.00;;;6.87;61.08;99040.00;5117292;28;20218;-54
2023/03/10 01:03:51;;;;;;;13.67;11.47;;;4.20;86.30;;;6.86;60.79;99038.38;5117134;28;20331;-55
2023/03/10 01:06:20;;;;;;;12.57;10.17;;;4.20;86.20;;;6.86;60.90;99028.72;5117282;28;20237;-54
2023/03/10 01:08:48;;;;;;;12.33;10.30;;;4.20;86.30;;;6.83;60.48;99032.53;5116239;28;20193;-57
2023/03/10 01:11:17;;;;;;;13.27;10.27;;;4.20;86.10;;;6.74;60.65;99023.22;5117271;28;20195;-54
2023/03/10 01:13:44;;;;;;;12.63;10.33;;;4.20;85.80;;;6.74;60.59;99023.22;5117020;27;20218;-53
2023/03/10 01:16:12;;;;;;;12.53;10.63;;;4.20;86.10;;;6.73;60.79;99013.75;5117034;28;20210;-54
2023/03/10 01:18:39;;;;;;;13.63;10.80;;;4.10;86.40;;;6.74;60.90;99010.16;5117076;28;20582;-52
2023/03/10 01:21:11;;;;;;;13.27;10.93;;;4.10;86.50;;;6.72;60.88;99006.94;5116723;28;20717;-56
2023/03/10 01:23:39;;;;;;;12.60;9.90;;;4.10;86.90;;;6.72;61.09;99001.69;5116725;28;20242;-53
2023/03/10 01:26:06;;;;;;;13.10;10.37;;;4.10;86.50;;;6.72;60.88;98995.66;5117000;28;20583;-54
2023/03/10 01:28:33;;;;;;;14.07;11.10;;;4.10;86.40;;;6.72;60.92;98985.22;5117020;28;20195;-56
2023/03/10 01:31:00;;;;;;;11.97;10.00;;;4.10;86.50;;;6.74;61.40;98988.44;5116567;28;20270;-54
2023/03/10 01:33:27;;;;;;;14.23;11.27;;;4.10;86.70;;;6.74;60.98;98989.25;5115782;28;20213;-54
2023/03/10 01:35:54;;;;;;;12.70;10.40;;;4.10;86.80;;;6.72;61.38;98978.19;5116382;28;20526;-53
2023/03/10 01:38:21;;;;;;;12.07;10.23;;;4.10;86.80;;;6.67;61.26;98970.09;5116153;28;20301;-53
2023/03/10 01:40:49;;;;;;;12.93;9.87;;;4.10;86.60;;;6.68;60.73;98963.06;5116460;28;20216;-55
2023/03/10 01:43:31;;;;;;;13.53;10.50;;;4.00;86.70;;;6.62;61.11;98961.22;5115658;28;20561;-53
2023/03/10 01:46:39;;;;;;;13.20;10.50;;;4.00;86.90;;;6.55;61.96;98952.53;5116069;28;20227;-53
2023/03/10 01:49:15;;;;;;;13.00;9.93;;;4.00;86.80;;;6.59;61.29;98945.91;5116403;28;20270;-54
2023/03/10 01:51:47;;;;;;;12.20;9.60;;;4.00;86.90;;;6.62;61.34;98940.31;5116170;28;20279;-54
2023/03/10 01:54:23;;;;;;;13.07;9.90;;;4.00;87.10;;;6.61;61.62;98939.50;5110020;28;20201;-55
2023/03/10 01:56:55;;;;;;;13.70;10.57;;;3.90;87.80;;;6.57;61.50;98933.06;5111586;28;20192;-53
2023/03/10 01:59:25;;;;;;;14.23;9.73;;;4.00;86.90;;;6.61;61.47;98928.22;5095623;28;20196;-52
2023/03/10 02:01:55;;;;;;;13.20;10.33;;;4.00;87.10;;;6.65;61.30;98926.88;5095140;28;20205;-52
2023/03/10 02:04:33;;;;;;;12.00;10.20;;;4.00;88.20;;;6.62;61.12;98909.75;5096015;28;20259;-52
2023/03/10 02:07:05;;;;;;;13.07;10.97;;;4.00;87.20;;;6.62;61.63;98907.16;5096306;28;20642;-52
2023/03/10 02:09:37;;;;;;;12.43;9.87;;;4.00;87.10;;;6.62;61.40;98906.34;5095195;28;20186;-53
2023/03/10 02:12:08;;;;;;;12.67;10.07;;;4.00;87.00;;;6.63;61.70;98898.28;5095458;28;20523;-53
2023/03/10 02:14:36;;;;;;;11.30;9.23;;;4.00;87.20;;;6.59;61.29;98899.69;5095397;28;20206;-54
2023/03/10 02:17:07;;;;;;;12.73;10.23;;;4.00;87.10;;;6.57;61.41;98898.28;5108600;28;20538;-55
2023/03/10 02:19:57;;;;;;;13.43;9.87;;;3.90;87.00;;;6.52;61.52;98888.41;5116146;28;20189;-53
2023/03/10 02:22:25;;;;;;;13.30;10.10;;;3.90;87.00;;;6.53;61.48;98876.16;5115716;28;20184;-52
2023/03/10 02:25:02;;;;;;;11.33;8.67;;;3.90;87.20;;;6.55;61.64;98867.13;5117262;27;20197;-53
2023/03/10 02:27:35;;;;;;;11.60;9.50;;;3.90;87.50;;;6.55;62.26;98874.94;5116846;28;20189;-52
2023/03/10 02:30:08;;;;;;;11.23;9.00;;;3.90;87.60;;;6.60;61.59;98869.13;5117276;28;20564;-53
2023/03/10 02:32:41;;;;;;;11.07;9.47;;;4.00;87.70;;;6.62;61.76;98859.28;5117587;28;20671;-53
2023/03/10 02:35:09;;;;;;;11.63;9.17;;;4.00;87.60;;;6.59;61.16;98852.66;5117984;28;20220;-55
2023/03/10 02:37:37;;;;;;;12.07;9.67;;;4.00;87.30;;;6.56;61.63;98853.03;5117775;28;20185;-54
2023/03/10 02:40:32;;;;;;;12.87;9.90;;;3.90;87.30;;;6.56;62.09;98847.81;5117664;28;20215;-53
2023/03/10 02:43:06;;;;;;;12.53;9.40;;;3.90;87.40;;;6.55;61.37;98845.41;5117836;28;20211;-54
2023/03/10 02:45:39;;;;;;;11.77;10.00;;;4.00;87.40;;;6.55;61.81;98842.78;5118521;28;20760;-53
2023/03/10 02:48:07;;;;;;;12.30;8.83;;;3.90;87.70;;;6.58;61.71;98842.41;5117210;28;20228;-53
2023/03/10 02:50:39;;;;;;;11.53;8.57;;;3.90;87.70;;;6.53;61.74;98829.94;5118326;28;20188;-53
2023/03/10 02:53:12;;;;;;;11.10;9.10;;;3.90;87.50;;;6.51;62.02;98831.91;5118053;28;20266;-55
2023/03/10 02:55:39;;;;;;;12.87;9.43;;;3.90;87.50;;;6.52;61.67;98830.09;5118250;28;20277;-52
2023/03/10 02:58:09;;;;;;;11.90;9.67;;;3.90;87.50;;;6.55;62.30;98825.31;5117900;28;20636;-53
2023/03/10 03:00:37;;;;;;;10.93;9.70;;;3.90;87.70;;;6.58;61.97;98824.09;5114513;28;20209;-56
2023/03/10 03:03:05;;;;;;;13.53;10.47;;;3.90;87.80;;;6.58;61.96;98824.09;5115065;28;20213;-55
2023/03/10 03:05:33;;;;;;;11.37;9.20;;;3.90;87.80;;;6.51;61.74;98816.22;5115170;28;20844;-54
2023/03/10 03:08:00;;;;;;;12.10;9.97;;;3.90;87.50;;;6.50;62.55;98814.63;5115082;28;20203;-56
2023/03/10 03:10:27;;;;;;;13.90;10.20;;;3.90;87.60;;;6.47;62.02;98820.25;5114025;28;20181;-55
2023/03/10 03:12:55;;;;;;;10.20;8.47;;;3.90;87.80;;;6.44;61.90;98815.41;5113610;28;20230;-53
2023/03/10 03:15:24;;;;;;;11.77;10.00;;;3.90;87.60;;;6.38;62.08;98810.97;5115819;28;20217;-53
2023/03/10 03:17:53;;;;;;;12.60;9.63;;;3.80;87.60;;;6.40;62.69;98803.72;5137916;27;20225;-55
2023/03/10 03:20:20;;;;;;;11.57;9.30;;;3.90;87.80;;;6.41;62.56;98805.34;5135561;27;20244;-54
2023/03/10 03:22:47;;;;;;;10.53;8.80;;;3.80;87.80;;;6.41;63.05;98794.91;5134996;27;20680;-53
2023/03/10 03:25:17;;;;;;;12.17;9.27;;;3.80;88.00;;;6.43;62.53;98792.91;5134779;27;20244;-55
2023/03/10 03:27:45;;;;;;;11.40;8.93;;;3.80;88.00;;;6.42;62.81;98791.28;5135201;27;20245;-54
2023/03/10 03:30:15;;;;;;;10.97;9.33;;;3.80;88.00;;;6.36;62.76;98786.03;5135306;27;20192;-52
2023/03/10 03:32:44;;;;;;;11.83;9.70;;;3.80;88.10;;;6.38;62.42;98790.06;5137103;27;20202;-55
2023/03/10 03:35:15;;;;;;;10.40;8.67;;;3.80;88.10;;;6.41;62.17;98788.88;5130933;27;20226;-55
2023/03/10 03:37:43;;;;;;;10.67;9.40;;;3.80;88.40;;;6.43;62.58;98789.47;5114993;28;20194;-54
2023/03/10 03:40:12;;;;;;;10.23;8.70;;;3.80;88.40;;;6.44;62.81;98789.28;5114495;28;20200;-55
2023/03/10 03:42:39;;;;;;;10.67;9.13;;;3.80;88.30;;;6.47;62.61;98786.28;5114403;28;20201;-60
2023/03/10 03:45:08;;;;;;;10.53;8.53;;;3.80;88.50;;;6.45;62.09;98788.28;5114155;28;20193;-53
2023/03/10 03:47:35;;;;;;;10.90;8.90;;;3.80;88.30;;;6.36;63.13;98784.25;5114807;28;20649;-53
2023/03/10 03:50:06;;;;;;;11.27;9.30;;;3.80;88.10;;;6.31;62.35;98777.97;5114000;28;20192;-56
2023/03/10 03:52:33;;;;;;;10.73;8.53;;;3.80;88.20;;;6.30;62.48;98776.38;5113865;28;20582;-54
2023/03/10 03:55:00;;;;;;;10.60;8.57;;;3.80;88.30;;;6.31;63.03;98773.56;5114740;28;20197;-53
2023/03/10 03:57:27;;;;;;;9.90;7.93;;;3.70;88.40;;;6.35;62.88;98772.16;5115030;28;20202;-53
2023/03/10 03:59:54;;;;;;;12.07;9.03;;;3.80;88.60;;;6.39;62.48;98767.38;5115115;28;20292;-56
2023/03/10 04:02:21;;;;;;;10.47;8.83;;;3.70;88.70;;;6.45;62.78;98770.00;5114624;28;20221;-53
2023/03/10 04:04:49;;;;;;;10.23;8.47;;;3.80;88.80;;;6.50;62.12;98772.00;5114867;28;20607;-60
2023/03/10 04:07:17;;;;;;;10.33;8.63;;;3.80;88.70;;;6.54;62.40;98774.03;5114177;28;20179;-54
2023/03/10 04:09:45;;;;;;;9.50;8.03;;;3.80;88.90;;;6.61;62.92;98774.84;5112884;28;20201;-54
2023/03/10 04:12:12;;;;;;;11.97;9.23;;;3.80;88.90;;;6.64;62.11;98768.44;5113765;28;20245;-54
2023/03/10 04:14:39;;;;;;;10.23;8.27;;;3.80;89.50;;;6.64;62.43;98774.47;5113683;28;20207;-55
2023/03/10 04:17:06;;;;;;;10.70;8.40;;;3.90;88.60;;;6.65;61.62;98770.88;5113464;28;20219;-55
2023/03/10 04:19:33;;;;;;;10.93;9.23;;;3.90;88.40;;;6.63;62.12;98779.91;5114290;28;20205;-54
2023/03/10 04:22:00;;;;;;;12.00;8.77;;;3.90;88.10;;;6.58;61.96;98779.69;5113544;28;20215;-52
2023/03/10 04:24:28;;;;;;;10.60;8.90;;;3.90;87.80;;;6.54;61.68;98779.25;5115558;28;20696;-53
2023/03/10 04:26:55;;;;;;;10.57;8.17;;;3.90;87.80;;;6.55;62.46;98780.88;5117715;28;20186;-53
2023/03/10 04:29:23;;;;;;;10.50;8.30;;;3.90;87.80;;;6.61;61.83;98782.69;5118069;28;20563;-57
2023/03/10 04:31:51;;;;;;;11.30;8.70;;;3.90;88.20;;;6.60;62.05;98781.09;5117954;28;20609;-55
2023/03/10 04:34:32;;;;;;;9.43;7.63;;;3.90;88.20;;;6.61;62.17;98787.91;5117753;28;20307;-56
2023/03/10 04:36:59;;;;;;;9.40;8.07;;;3.90;88.10;;;6.62;62.48;98786.94;5117792;28;20193;-55
2023/03/10 04:39:27;;;;;;;11.27;8.63;;;3.90;88.00;;;6.64;61.71;98789.34;5117870;28;20615;-54
2023/03/10 04:41:54;;;;;;;9.33;7.90;;;3.90;88.10;;;6.67;62.65;98792.38;5117054;27;20238;-56
2023/03/10 04:44:21;;;;;;;10.67;8.53;;;3.90;88.30;;;6.66;61.47;98788.13;5117207;28;20650;-56
2023/03/10 04:46:57;;;;;;;10.47;8.93;;;3.90;88.10;;;6.64;61.45;98795.38;5117635;28;20599;-54
2023/03/10 04:49:24;;;;;;;9.70;8.10;;;4.00;88.30;;;6.61;61.58;98790.53;5117052;28;20188;-56
2023/03/10 04:51:51;;;;;;;11.73;8.63;;;3.90;87.90;;;6.62;62.03;98794.78;5117329;28;20198;-55
2023/03/10 04:54:18;;;;;;;10.07;7.80;;;4.00;88.10;;;6.61;61.67;98790.53;5116629;28;20201;-56
2023/03/10 04:56:47;;;;;;;10.50;8.50;;;3.90;88.00;;;6.61;61.80;98793.16;5117004;28;20210;-57
2023/03/10 04:59:14;;;;;;;9.77;8.20;;;3.90;87.90;;;6.62;62.59;98791.34;5116934;28;20192;-55
2023/03/10 05:01:41;;;;;;;9.10;7.20;;;3.90;88.10;;;6.62;61.65;98792.16;5116461;28;20640;-56
2023/03/10 05:04:09;;;;;;;11.27;8.87;;;3.90;87.90;;;6.64;61.59;98795.38;5116408;28;20208;-55
2023/03/10 05:06:36;;;;;;;9.57;7.90;;;3.90;87.90;;;6.63;62.06;98793.75;5116744;28;20198;-55
2023/03/10 05:09:03;;;;;;;10.33;8.30;;;3.90;88.10;;;6.59;61.70;98797.78;5115649;27;20214;-55
2023/03/10 05:11:31;;;;;;;10.13;8.30;;;3.90;88.10;;;6.55;62.03;98795.75;5116421;28;20186;-56
2023/03/10 05:14:00;;;;;;;10.87;8.53;;;3.90;87.90;;;6.55;61.95;98803.59;5116380;28;20294;-55
2023/03/10 05:16:27;;;;;;;9.90;8.00;;;3.90;88.00;;;6.60;62.72;98804.63;5116273;28;20203;-57
2023/03/10 05:18:54;;;;;;;11.97;8.60;;;3.90;88.20;;;6.65;62.75;98807.44;5116961;28;20191;-54
2023/03/10 05:21:21;;;;;;;11.20;8.37;;;3.90;88.60;;;6.69;62.19;98808.66;5116598;28;20229;-55
2023/03/10 05:23:48;;;;;;;10.93;8.03;;;3.90;88.50;;;6.75;61.91;98809.69;5116582;28;20242;-55
2023/03/10 05:26:16;;;;;;;10.17;8.77;;;3.90;88.60;;;6.77;61.88;98810.28;5116904;28;20198;-53
2023/03/10 05:28:43;;;;;;;14.13;11.83;;;4.00;89.40;;;6.79;61.38;98808.28;5116460;28;20200;-55
2023/03/10 05:31:15;;;;;;;11.13;9.00;;;4.00;88.50;;;6.80;61.36;98809.88;5116740;28;20606;-54
2023/03/10 05:33:43;;;;;;;10.30;8.43;;;4.00;88.40;;;6.78;61.22;98807.47;5116654;28;20749;-55
2023/03/10 05:36:11;;;;;;;12.43;9.17;;;4.00;88.00;;;6.74;61.63;98811.50;5115245;28;20185;-55
2023/03/10 05:38:38;;;;;;;9.97;8.40;;;4.00;87.90;;;6.74;61.81;98811.50;5116579;28;20203;-56
2023/03/10 05:41:07;;;;;;;10.60;8.60;;;4.00;88.00;;;6.76;61.52;98819.13;5116655;28;20191;-54
2023/03/10 05:43:35;;;;;;;11.13;8.93;;;4.00;88.00;;;6.77;61.86;98815.53;5116625;28;20216;-54
2023/03/10 05:46:02;;;;;;;10.57;8.23;;;4.00;88.40;;;6.75;61.78;98817.53;5116276;28;20646;-54
2023/03/10 05:48:31;;;;;;;10.80;8.47;;;4.10;88.20;;;6.78;61.85;98811.88;5116849;28;20244;-57
2023/03/10 05:51:00;;;;;;;11.53;9.70;;;4.10;88.20;;;6.80;61.63;98825.56;5116058;28;20194;-55
2023/03/10 05:53:28;;;;;;;12.07;9.47;;;4.00;88.10;;;6.79;62.11;98830.00;5116270;28;20210;-54
2023/03/10 05:55:56;;;;;;;12.10;9.27;;;4.10;88.10;;;6.74;61.07;98829.78;5116199;28;20184;-54
2023/03/10 05:58:25;;;;;;;12.03;9.23;;;4.10;87.80;;;6.69;61.59;98826.97;5116276;28;20187;-54
2023/03/10 06:00:52;;;;;;;11.27;9.13;;;4.00;87.50;;;6.69;62.41;98824.34;5116142;28;20616;-58
2023/03/10 06:03:22;;;;;;;11.57;9.67;;;4.00;87.90;;;6.71;61.69;98817.09;5116119;28;20212;-53
2023/03/10 06:05:50;;;;;;;11.10;9.80;;;4.00;88.00;;;6.68;61.44;98814.88;5116605;27;20231;-56
2023/03/10 06:08:17;;;;;;;12.93;10.03;;;4.00;87.80;;;6.63;62.07;98824.31;5110976;27;20199;-55
2023/03/10 06:10:44;;;;;;;14.10;10.23;;;4.00;87.60;;;6.59;62.32;98826.50;5096556;28;20192;-54
2023/03/10 06:13:12;;;;;;;13.80;10.97;;;3.90;87.80;;;6.55;61.96;98822.69;5094163;28;20215;-57
2023/03/10 06:15:39;;;;;;;12.87;11.10;;;3.90;87.80;;;6.57;62.37;98820.69;5097481;28;20205;-53
2023/03/10 06:18:06;;;;;;;13.83;10.97;;;3.90;88.00;;;6.53;62.46;98818.66;5118768;27;20194;-56
2023/03/10 06:20:33;;;;;;;13.60;11.40;;;3.90;88.00;;;6.50;61.88;98830.31;5117575;28;20206;-57
2023/03/10 06:23:01;;;;;;;13.73;11.50;;;3.90;88.10;;;6.50;62.71;98819.84;5118086;28;20224;-56
2023/03/10 06:25:28;;;;;;;16.80;12.63;;;3.80;88.30;;;6.52;62.97;98823.06;5096726;28;20197;-54
2023/03/10 06:27:55;;;;;;;14.80;12.27;;;3.80;88.40;;;6.56;62.39;98819.06;5096366;28;20194;-56
2023/03/10 06:30:22;;;;;;;14.47;12.17;;;3.80;88.70;;;6.58;62.35;98822.31;5095813;28;20270;-56
2023/03/10 06:32:49;;;;;;;15.50;12.80;;;3.90;88.80;;;6.57;62.53;98825.91;5094799;28;20236;-56
2023/03/10 06:35:16;;;;;;;15.17;12.77;;;3.90;88.60;;;6.55;62.55;98817.47;5095009;28;20184;-57
2023/03/10 06:37:43;;;;;;;15.63;12.80;;;3.90;88.40;;;6.55;62.75;98827.91;5095344;28;20515;-58
2023/03/10 06:40:13;;;;;;;17.33;13.87;;;3.80;88.50;;;6.53;62.67;98822.09;5095569;28;20284;-56
2023/03/10 06:42:41;;;;;;;15.77;12.67;;;3.80;88.70;;;6.49;62.53;98828.69;5094571;28;20212;-56
2023/03/10 06:45:13;;;;;;;16.13;12.50;;;3.80;88.50;;;6.45;62.93;98824.03;5094895;28;20255;-56
2023/03/10 06:47:40;;;;;;;15.47;12.43;;;3.80;88.50;;;6.39;62.92;98823.03;5094272;28;20173;-55
2023/03/10 06:50:10;;;;;;;17.60;12.50;;;3.80;88.40;;;6.43;63.12;98832.09;5095540;28;20666;-54
2023/03/10 06:52:37;;;;;;;15.90;12.30;;;3.80;88.70;;;6.51;63.24;98824.06;5094193;28;20186;-55
2023/03/10 06:55:05;;;;;;;16.23;13.07;;;3.80;89.20;;;6.60;63.21;98833.38;5095171;28;20210;-54
2023/03/10 06:57:34;;;;;;;18.20;13.47;;;3.80;89.40;;;6.60;62.01;98832.56;5094946;28;20187;-53
2023/03/10 07:00:01;;;;;;;15.23;13.03;;;3.90;89.00;;;6.61;61.97;98832.34;5095179;28;20198;-53
2023/03/10 07:02:28;;;;;;;16.27;13.00;;;3.90;88.70;;;6.60;62.72;98843.00;5094167;28;20269;-57
2023/03/10 07:04:55;;;;;;;15.10;13.50;;;3.90;88.50;;;6.57;62.73;98841.59;5094785;28;20197;-55
2023/03/10 07:07:22;;;;;;;16.50;13.67;;;3.90;89.50;;;6.53;62.29;98840.38;5095075;28;20716;-55
2023/03/10 07:09:49;;;;;;;16.13;13.20;;;3.90;88.50;;;6.50;62.59;98840.75;5094405;27;20661;-55
2023/03/10 07:12:16;;;;;;;16.03;12.67;;;3.90;88.60;;;6.48;62.13;98848.00;5094542;28;20649;-52
2023/03/10 07:14:44;;;;;;;14.87;12.53;;;3.90;88.60;;;6.54;62.97;98852.44;5094900;28;20671;-56
2023/03/10 07:17:12;;;;;;;14.30;12.80;;;3.90;88.90;;;6.61;62.95;98863.72;5107722;28;20263;-56
2023/03/10 07:19:39;;;;;;;16.17;13.00;;;3.90;89.00;;;6.69;61.96;98860.94;5113706;28;20206;-54
2023/03/10 07:22:06;;;;;;;16.67;13.47;;;3.90;89.20;;;6.71;62.10;98858.94;5114414;28;20216;-54
2023/03/10 07:24:37;;;;;;;17.50;13.80;;;3.90;88.80;;;6.74;61.67;98862.97;5115253;28;20680;-54
2023/03/10 07:27:04;;;;;;;16.87;13.13;;;4.00;88.90;;;6.73;61.67;98862.16;5115186;28;20190;-54
2023/03/10 07:29:31;;;;;;;16.63;13.70;;;4.00;88.70;;;6.73;62.13;98872.59;5114678;28;20221;-56
2023/03/10 07:32:00;;;;;;;22.17;13.97;;;4.00;88.70;;;6.75;62.31;98864.59;5114271;28;20661;-54
2023/03/10 07:34:27;;;;;;;16.63;14.43;;;4.00;88.70;;;6.79;61.94;98871.84;5113838;27;20237;-57
2023/03/10 07:36:54;;;;;;;19.33;15.03;;;4.00;88.80;;;6.78;61.66;98875.44;5114849;28;20245;-55
2023/03/10 07:39:21;;;;;;;17.20;14.20;;;4.00;88.60;;;6.72;62.31;98873.63;5114454;28;20197;-54
2023/03/10 07:41:48;;;;;;;17.10;13.57;;;4.00;88.50;;;6.69;62.34;98868.78;5114804;28;20209;-55
2023/03/10 07:44:15;;;;;;;17.50;14.00;;;4.00;88.30;;;6.73;62.34;98870.00;5114069;28;20260;-55
2023/03/10 07:46:42;;;;;;;17.10;13.73;;;4.00;88.90;;;6.76;62.10;98872.22;5114897;28;20189;-55
2023/03/10 07:49:10;;;;;;;20.37;16.03;;;4.00;88.90;;;6.78;61.73;98877.25;5114281;28;20249;-54
2023/03/10 07:51:37;;;;;;;19.70;15.53;;;4.00;88.90;;;6.76;62.07;98887.91;5114447;28;20188;-55
2023/03/10 07:54:04;;;;;;;18.50;15.23;;;4.00;88.50;;;6.78;62.15;98893.75;5114205;28;20200;-54
2023/03/10 07:56:31;;;;;;;16.90;13.67;;;4.10;88.80;;;6.83;62.10;98893.16;5114736;28;20215;-55
2023/03/10 07:58:59;;;;;;;19.27;14.87;;;4.10;88.90;;;6.91;62.42;98895.59;5115595;28;20183;-55
2023/03/10 08:01:26;;;;;;;16.77;13.80;;;4.10;89.20;;;6.99;62.37;98905.09;5118413;28;20196;-55
2023/03/10 08:03:53;;;;;;;18.03;14.40;;;4.10;89.30;;;7.04;62.50;98911.31;5118239;28;20219;-55
2023/03/10 08:06:27;;;;;;;18.53;14.33;;;4.20;89.30;;;7.10;61.84;98904.50;5119037;28;20196;-53
2023/03/10 08:08:55;;;;;;;17.73;14.60;;;4.20;89.30;;;7.20;62.13;98915.41;5117796;27;20220;-55
2023/03/10 08:11:23;;;;;;;14.60;13.10;;;4.30;90.00;;;7.33;62.16;98920.63;5117897;28;20276;-53
2023/03/10 08:13:50;;;;;;;14.20;12.47;;;4.40;90.10;;;7.38;61.97;98918.25;5117822;28;20569;-57
2023/03/10 08:16:20;;;;;;;13.80;11.13;;;4.40;89.70;;;7.40;61.44;98916.22;5118299;28;20290;-55
2023/03/10 08:18:49;;;;;;;15.70;13.43;;;4.50;89.10;;;7.38;61.23;98918.25;5118234;28;20204;-55
2023/03/10 08:21:16;;;;;;;16.27;13.40;;;4.50;88.20;;;7.32;60.95;98921.66;5118666;28;20200;-55
2023/03/10 08:23:45;;;;;;;14.37;12.87;;;4.50;87.60;;;7.34;61.32;98932.72;5117361;28;20590;-56
2023/03/10 08:26:15;;;;;;;15.13;12.70;;;4.50;88.00;;;7.35;60.96;98927.28;5116769;28;20189;-56
2023/03/10 08:28:43;;;;;;;15.97;12.80;;;4.60;88.20;;;7.41;61.33;98933.53;5118183;28;20279;-56
2023/03/10 08:31:14;;;;;;;17.17;14.13;;;4.50;88.20;;;7.41;60.89;98931.75;5117674;28;20202;-54
2023/03/10 08:33:42;;;;;;;17.33;14.13;;;4.60;87.70;;;7.34;60.81;98924.88;5117138;28;20264;-54
2023/03/10 08:36:13;;;;;;;24.70;20.90;;;4.60;87.00;;;7.31;60.80;98923.47;5117380;28;20255;-52
2023/03/10 08:38:42;;;;;;;26.20;20.23;;;4.60;87.40;;;7.35;61.25;98929.09;5118825;28;20219;-56
2023/03/10 08:41:16;;;;;;;17.83;14.83;;;4.60;87.70;;;7.34;60.76;98922.25;5117686;27;20737;-54
2023/03/10 08:43:43;;;;;;;31.30;24.20;;;4.50;87.10;;;7.30;60.66;98931.50;5117860;28;20222;-54
2023/03/10 08:46:15;;;;;;;19.77;15.23;;;4.50;87.30;;;7.31;60.88;98933.94;5118482;28;20182;-57
2023/03/10 08:48:42;;;;;;;22.80;17.17;;;4.50;87.40;;;7.34;60.81;98933.53;5117841;28;20194;-54
2023/03/10 08:51:11;;;;;;;19.20;15.23;;;4.50;87.40;;;7.35;60.65;98929.09;5118002;28;20302;-56
2023/03/10 08:53:45;;;;;;;19.47;15.53;;;4.50;87.20;;;7.33;60.62;98929.31;5116712;28;20201;-54
2023/03/10 08:56:15;;;;;;;32.80;24.70;;;4.60;87.10;;;7.36;61.01;98935.94;5117418;28;20268;-55
2023/03/10 08:58:42;;;;;;;29.33;21.37;;;4.50;87.30;;;7.44;61.07;98941.00;5116810;27;20195;-58
2023/03/10 09:01:10;;;;;;;20.57;16.13;;;4.60;88.00;;;7.54;60.72;98951.88;5117038;27;20202;-55
2023/03/10 09:03:39;;;;;;;18.33;14.83;;;4.60;87.90;;;7.56;60.44;98936.78;5122858;27;20224;-55
2023/03/10 09:06:07;;;;;;;15.30;13.00;;;4.60;87.60;;;7.58;59.96;98939.22;5113539;27;20193;-54
2023/03/10 09:08:34;;;;;;;18.47;13.93;;;4.70;87.20;;;7.54;59.93;98933.56;5112063;27;20560;-54
2023/03/10 09:11:02;;;;;;;16.73;14.27;;;4.70;86.50;;;7.51;60.12;98931.34;5112462;27;20229;-54
2023/03/10 09:13:30;;;;;;;19.30;14.97;;;4.70;86.60;;;7.50;60.57;98933.16;5115700;27;20277;-54
2023/03/10 09:15:57;;;;;;;16.13;13.57;;;4.70;86.90;;;7.58;60.47;98932.16;5109964;27;20210;-54
2023/03/10 09:18:25;;;;;;;16.53;14.20;;;4.70;87.20;;;7.64;60.46;98933.97;5117586;27;20281;-56
2023/03/10 09:20:52;;;;;;;18.60;14.43;;;4.70;87.10;;;7.69;60.06;98926.31;5109632;27;20201;-54
2023/03/10 09:23:19;;;;;;;15.37;13.77;;;4.70;86.90;;;7.61;59.65;98934.38;5115401;27;20208;-54
2023/03/10 09:25:46;;;;;;;15.73;14.03;;;4.80;86.20;;;7.56;59.75;98931.53;5113768;27;20644;-55
2023/03/10 09:28:13;;;;;;;22.63;17.47;;;4.80;86.00;;;7.62;60.26;98936.00;5130432;27;20191;-55
2023/03/10 09:30:46;;;;;;;18.70;14.73;;;4.80;86.50;;;7.72;59.95;98939.03;5118005;27;20549;-56
2023/03/10 09:33:17;;;;;;;17.40;14.00;;;4.80;86.90;;;7.79;59.47;98941.63;5097043;27;20302;-52
2023/03/10 09:35:45;;;;;;;15.67;13.53;;;4.80;86.50;;;7.87;59.43;98942.22;5105055;27;20221;-57
2023/03/10 09:38:24;;;;;;;16.27;13.70;;;4.90;86.60;;;7.91;59.41;98943.47;5112084;27;20226;-55
2023/03/10 09:41:02;;;;;;;18.83;15.63;;;4.90;86.60;;;7.96;59.28;98948.09;5112835;27;20194;-54
2023/03/10 09:43:37;;;;;;;18.53;15.23;;;5.00;86.70;;;8.07;59.66;98944.84;5120287;27;20554;-56
2023/03/10 09:46:18;;;;;;;18.57;14.37;;;5.00;87.10;;;8.15;58.99;98942.03;5125228;27;20304;-53
2023/03/10 09:48:55;;;;;;;16.33;13.37;;;5.10;86.40;;;8.12;58.24;98939.81;5115199;27;20183;-53
2023/03/10 09:51:26;;;;;;;15.37;13.30;;;5.20;85.20;;;8.12;58.68;98948.50;5112550;27;20205;-53
2023/03/10 09:54:08;;;;;;;15.97;12.80;;;5.20;85.30;;;8.15;58.43;98955.13;5104300;27;20214;-55
2023/03/10 09:56:36;;;;;;;17.75;16.05;;;5.20;85.40;;;8.55;57.84;98961.16;5102182;28;20829;-53
2023/03/10 09:59:10;;;;;;;16.63;14.83;;;5.20;85.70;;;8.40;57.76;98960.56;5124520;27;20195;-56
2023/03/10 10:01:43;;;;;;;16.17;14.10;;;5.20;85.30;;;8.34;57.74;98956.16;5095992;28;20193;-56
2023/03/10 10:04:16;;;;;;;16.37;14.63;;;5.30;84.90;;;8.32;57.92;98963.41;5115706;28;20296;-53
2023/03/10 10:06:47;;;;;;;16.20;14.07;;;5.30;84.70;;;8.36;57.92;98964.63;5114932;28;20277;-56
2023/03/10 10:09:24;;;;;;;15.53;12.90;;;5.30;84.90;;;8.38;57.65;98971.25;5107775;27;20205;-58
2023/03/10 10:11:51;;;;;;;16.63;13.30;;;5.40;84.80;;;8.44;57.68;98974.88;5104047;28;20175;-53
2023/03/10 10:14:21;;;;;;;15.30;13.40;;;5.40;84.90;;;8.53;57.58;98971.03;5115882;28;20204;-54
2023/03/10 10:17:07;;;;;;;15.27;12.80;;;5.40;84.70;;;8.56;57.32;98978.47;5115818;28;20227;-57
2023/03/10 10:19:38;;;;;;;14.80;13.10;;;5.50;84.40;;;8.59;57.33;98991.19;5113435;28;20216;-54
2023/03/10 10:22:17;;;;;;;14.87;13.20;;;5.50;84.20;;;8.59;57.00;98985.94;5113254;28;20216;-57
2023/03/10 10:25:05;;;;;;;19.63;16.50;;;5.50;83.80;;;8.56;56.98;98981.09;5115744;27;20583;-55
2023/03/10 10:27:35;;;;;;;18.33;13.23;;;5.60;83.80;;;8.51;56.92;98968.59;5116241;27;20334;-54
2023/03/10 10:30:30;;;;;;;26.80;20.97;;;5.50;83.30;;;8.46;56.99;98971.03;5107818;27;20265;-54
2023/03/10 10:33:02;;;;;;;14.57;13.03;;;5.60;83.30;;;8.51;56.98;98967.81;5115894;27;20221;-53